sensor_id;sensor_type;location;lat;lon;timestamp;P1;durP1;ratioP1;P2;durP2;ratioP2
9100;SDS011;4586;52.518;13.486;2023-03-01T00:03:55;15.30;;;7.77;;
9100;SDS011;4586;52.518;13.486;2023-03-01T00:07:58;20.33;;;8.37;;
9100;SDS011;4586;52.518;13.486;2023-03-01T00:12:00;19.23;;;8.67;;
9100;SDS011;4586;52.518;13.486;2023-03-01T00:16:05;14.97;;;7.63;;
9100;SDS011;4586;52.518;13.486;2023-03-01T00:20:08;23.30;;;8.40;;
9100;SDS011;4586;52.518;13.486;2023-03-01T00:24:10;20.67;;;9.07;;
9100;SDS011;4586;52.518;13.486;2023-03-01T00:28:13;17.17;;;7.90;;
9100;SDS011;4586;52.518;13.486;2023-03-01T00:32:15;16.43;;;7.93;;
9100;SDS011;4586;52.518;13.486;2023-03-01T00:36:17;19.07;;;7.93;;
9100;SDS011;4586;52.518;13.486;2023-03-01T00:40:20;12.93;;;7.07;;
9100;SDS011;4586;52.518;13.486;2023-03-01T00:44:22;13.80;;;7.00;;
9100;SDS011;4586;52.518;13.486;2023-03-01T00:48:24;16.90;;;7.27;;
9100;SDS011;4586;52.518;13.486;2023-03-01T00:52:26;16.73;;;7.97;;
9100;SDS011;4586;52.518;13.486;2023-03-01T00:56:28;17.80;;;7.77;;
9100;SDS011;4586;52.518;13.486;2023-03-01T01:00:32;12.07;;;6.83;;
9100;SDS011;4586;52.518;13.486;2023-03-01T01:04:34;9.93;;;5.77;;
9100;SDS011;4586;52.518;13.486;2023-03-01T01:08:37;11.83;;;5.80;;
9100;SDS011;4586;52.518;13.486;2023-03-01T01:12:39;12.57;;;6.10;;
9100;SDS011;4586;52.518;13.486;2023-03-01T01:16:42;10.30;;;5.73;;
9100;SDS011;4586;52.518;13.486;2023-03-01T01:20:44;12.60;;;5.97;;
9100;SDS011;4586;52.518;13.486;2023-03-01T01:24:46;9.57;;;5.60;;
9100;SDS011;4586;52.518;13.486;2023-03-01T01:28:48;11.13;;;4.90;;
9100;SDS011;4586;52.518;13.486;2023-03-01T01:32:50;10.67;;;5.60;;
9100;SDS011;4586;52.518;13.486;2023-03-01T01:36:53;11.93;;;5.30;;
9100;SDS011;4586;52.518;13.486;2023-03-01T01:40:55;8.23;;;5.73;;
9100;SDS011;4586;52.518;13.486;2023-03-01T01:49:22;8.33;;;5.63;;
9100;SDS011;4586;52.518;13.486;2023-03-01T01:53:24;9.53;;;5.20;;
9100;SDS011;4586;52.518;13.486;2023-03-01T01:57:29;8.83;;;5.70;;
9100;SDS011;4586;52.518;13.486;2023-03-01T02:01:33;10.83;;;5.10;;
9100;SDS011;4586;52.518;13.486;2023-03-01T02:05:43;6.17;;;4.50;;
9100;SDS011;4586;52.518;13.486;2023-03-01T02:09:51;9.63;;;5.10;;
9100;SDS011;4586;52.518;13.486;2023-03-01T02:13:54;6.90;;;4.73;;
9100;SDS011;4586;52.518;13.486;2023-03-01T02:17:56;8.13;;;5.23;;
9100;SDS011;4586;52.518;13.486;2023-03-01T02:22:02;7.93;;;5.20;;
9100;SDS011;4586;52.518;13.486;2023-03-01T02:26:13;8.10;;;5.40;;
9100;SDS011;4586;52.518;13.486;2023-03-01T02:30:18;7.43;;;5.03;;
9100;SDS011;4586;52.518;13.486;2023-03-01T02:34:21;8.87;;;5.23;;
9100;SDS011;4586;52.518;13.486;2023-03-01T02:38:24;8.37;;;5.17;;
9100;SDS011;4586;52.518;13.486;2023-03-01T02:42:30;8.63;;;4.90;;
9100;SDS011;4586;52.518;13.486;2023-03-01T02:46:33;7.10;;;4.60;;
9100;SDS011;4586;52.518;13.486;2023-03-01T02:54:48;8.03;;;4.80;;
9100;SDS011;4586;52.518;13.486;2023-03-01T02:58:52;7.73;;;4.70;;
9100;SDS011;4586;52.518;13.486;2023-03-01T03:02:54;9.23;;;5.40;;
9100;SDS011;4586;52.518;13.486;2023-03-01T03:06:58;9.00;;;5.30;;
9100;SDS011;4586;52.518;13.486;2023-03-01T03:11:00;9.60;;;5.53;;
9100;SDS011;4586;52.518;13.486;2023-03-01T03:15:03;7.90;;;5.13;;
9100;SDS011;4586;52.518;13.486;2023-03-01T03:19:05;7.93;;;5.23;;
9100;SDS011;4586;52.518;13.486;2023-03-01T03:23:07;6.63;;;4.67;;
9100;SDS011;4586;52.518;13.486;2023-03-01T03:27:10;6.27;;;4.63;;
9100;SDS011;4586;52.518;13.486;2023-03-01T03:31:12;9.27;;;5.30;;
9100;SDS011;4586;52.518;13.486;2023-03-01T03:35:14;6.97;;;4.87;;
9100;SDS011;4586;52.518;13.486;2023-03-01T03:39:17;8.03;;;5.20;;
9100;SDS011;4586;52.518;13.486;2023-03-01T03:43:22;8.67;;;5.27;;
9100;SDS011;4586;52.518;13.486;2023-03-01T03:47:24;8.33;;;4.90;;
9100;SDS011;4586;52.518;13.486;2023-03-01T03:51:27;7.73;;;4.67;;
9100;SDS011;4586;52.518;13.486;2023-03-01T03:55:29;9.30;;;5.07;;
9100;SDS011;4586;52.518;13.486;2023-03-01T03:59:31;7.67;;;5.00;;
9100;SDS011;4586;52.518;13.486;2023-03-01T04:03:33;10.30;;;6.07;;
9100;SDS011;4586;52.518;13.486;2023-03-01T04:07:36;9.03;;;5.40;;
9100;SDS011;4586;52.518;13.486;2023-03-01T04:11:38;9.83;;;5.67;;
9100;SDS011;4586;52.518;13.486;2023-03-01T04:15:40;11.83;;;5.77;;
9100;SDS011;4586;52.518;13.486;2023-03-01T04:19:42;8.47;;;5.63;;
9100;SDS011;4586;52.518;13.486;2023-03-01T04:23:45;11.30;;;5.60;;
9100;SDS011;4586;52.518;13.486;2023-03-01T04:27:47;8.53;;;5.67;;
9100;SDS011;4586;52.518;13.486;2023-03-01T04:31:49;11.83;;;6.20;;
9100;SDS011;4586;52.518;13.486;2023-03-01T04:35:51;10.60;;;5.53;;
9100;SDS011;4586;52.518;13.486;2023-03-01T04:39:54;8.40;;;5.80;;
9100;SDS011;4586;52.518;13.486;2023-03-01T04:43:56;9.23;;;6.00;;
9100;SDS011;4586;52.518;13.486;2023-03-01T04:47:58;10.93;;;6.40;;
9100;SDS011;4586;52.518;13.486;2023-03-01T04:52:00;10.37;;;6.37;;
9100;SDS011;4586;52.518;13.486;2023-03-01T04:56:02;9.13;;;6.33;;
9100;SDS011;4586;52.518;13.486;2023-03-01T05:00:05;11.83;;;6.70;;
9100;SDS011;4586;52.518;13.486;2023-03-01T05:04:08;13.23;;;6.77;;
9100;SDS011;4586;52.518;13.486;2023-03-01T05:08:10;11.83;;;6.83;;
9100;SDS011;4586;52.518;13.486;2023-03-01T05:12:13;11.17;;;6.53;;
9100;SDS011;4586;52.518;13.486;2023-03-01T05:16:15;11.53;;;7.13;;
9100;SDS011;4586;52.518;13.486;2023-03-01T05:20:17;14.87;;;7.13;;
9100;SDS011;4586;52.518;13.486;2023-03-01T05:24:20;10.03;;;6.57;;
9100;SDS011;4586;52.518;13.486;2023-03-01T05:28:22;12.37;;;6.97;;
9100;SDS011;4586;52.518;13.486;2023-03-01T05:32:24;13.00;;;7.67;;
